Time;durP1;ratioP1;P1;durP2;ratioP2;P2;SDS_P1;SDS_P2;PMS_P1;PMS_P2;Temp;Humidity;BMP_temperature;BMP_pressure;BME280_temperature;BME280_humidity;BME280_pressure;Samples;Min_cycle;Max_cycle;Signal;HPM_P1;HPM_P2
2022/12/20 00:00:11;;;;;;;;;;;;;;;10.17;nan;101838.03;5032666;28;19925;-34
2022/12/20 00:02:36;;;;;;;;;;;;;;;10.13;nan;101820.78;5034052;28;19926;-35
2022/12/20 00:05:02;;;;;;;;;;;;;;;10.12;nan;101835.22;5035882;28;19917;-35
2022/12/20 00:07:27;;;;;;;;;;;;;;;10.06;nan;101839.59;5032851;28;19921;-34
2022/12/20 00:09:53;;;;;;;;;;;;;;;10.02;nan;101833.00;5036316;28;19917;-34
2022/12/20 00:12:18;;;;;;;;;;;;;;;10.03;nan;101825.78;5034546;28;19921;-34
2022/12/20 00:14:44;;;;;;;;;;;;;;;9.95;nan;101814.31;5031068;28;19928;-34
2022/12/20 00:17:09;;;;;;;;;;;;;;;9.93;nan;101796.84;5031784;28;20304;-35
2022/12/20 00:19:34;;;;;;;;;;;;;;;9.90;nan;101798.09;5031206;28;19917;-35
2022/12/20 00:22:00;;;;;;;;;;;;;;;9.92;nan;101797.88;5036327;28;20022;-35
2022/12/20 00:24:25;;;;;;;;;;;;;;;9.92;nan;101804.06;5032403;28;19924;-34
2022/12/20 00:26:50;;;;;;;;;;;;;;;9.93;nan;101797.66;5035988;28;19916;-35
2022/12/20 00:29:16;;;;;;;;;;;;;;;9.93;nan;101791.50;5033720;28;19966;-34
2022/12/20 00:31:41;;;;;;;;;;;;;;;9.94;nan;101791.25;5032256;28;20019;-34
2022/12/20 00:34:07;;;;;;;;;;;;;;;9.95;nan;101787.56;5031725;28;19965;-34
2022/12/20 00:36:33;;;;;;;;;;;;;;;9.96;nan;101794.53;5031202;28;20398;-34
2022/12/20 00:38:59;;;;;;;;;;;;;;;9.98;nan;101797.00;5033694;28;20070;-34
2022/12/20 00:41:26;;;;;;;;;;;;;;;9.99;nan;101793.28;5034712;28;19974;-35
2022/12/20 00:43:52;;;;;;;;;;;;;;;10.00;nan;101787.72;5035848;28;20290;-34
2022/12/20 00:46:18;;;;;;;;;;;;;;;9.98;nan;101784.44;5032401;28;19966;-34
2022/12/20 00:48:43;;;;;;;;;;;;;;;10.01;nan;101793.88;5031394;28;19920;-34
2022/12/20 00:51:10;;;;;;;;;;;;;;;10.03;nan;101797.16;5029499;28;19943;-34
2022/12/20 00:53:35;;;;;;;;;;;;;;;10.06;nan;101803.97;5032360;28;19917;-35
2022/12/20 00:56:01;;;;;;;;;;;;;;;10.06;nan;101798.59;5046819;23;20155;-33
2022/12/20 00:58:27;;;;;;;;;;;;;;;10.10;nan;101799.78;5029207;28;19983;-34
2022/12/20 01:00:53;;;;;;;;;;;;;;;10.11;nan;101798.75;5032907;28;19917;-33
2022/12/20 01:03:18;;;;;;;;;;;;;;;10.10;nan;101797.13;5030007;28;19920;-33
2022/12/20 01:05:54;;;;;;;;;;;;;;;10.10;nan;101799.78;5031128;28;20359;-33
2022/12/20 01:08:20;;;;;;;;;;;;;;;10.11;nan;101798.75;5031642;28;19917;-34
2022/12/20 01:10:46;;;;;;;;;;;;;;;10.14;nan;101788.41;5034633;28;20387;-34
2022/12/20 01:13:11;;;;;;;;;;;;;;;10.15;nan;101797.28;5029755;28;20191;-33
2022/12/20 01:15:37;;;;;;;;;;;;;;;10.15;nan;101791.91;5031587;28;20004;-33
2022/12/20 01:18:02;;;;;;;;;;;;;;;10.16;nan;101791.69;5033377;28;20011;-35
2022/12/20 01:20:28;;;;;;;;;;;;;;;10.19;nan;101801.16;5036030;28;19917;-33
2022/12/20 01:22:53;;;;;;;;;;;;;;;10.22;nan;101809.59;5030744;28;19952;-34
2022/12/20 01:25:19;;;;;;;;;;;;;;;10.25;nan;101803.81;5031224;28;19917;-33
2022/12/20 01:27:45;;;;;;;;;;;;;;;10.22;nan;101798.06;5031016;28;19974;-33
2022/12/20 01:30:10;;;;;;;;;;;;;;;10.20;nan;101784.03;5030976;28;19925;-33
2022/12/20 01:32:36;;;;;;;;;;;;;;;10.20;nan;101792.88;5034712;28;19918;-34
2022/12/20 01:35:01;;;;;;;;;;;;;;;10.19;nan;101779.72;5032076;28;19986;-33
2022/12/20 01:37:27;;;;;;;;;;;;;;;10.21;nan;101775.00;5029384;28;19923;-34
2022/12/20 01:39:52;;;;;;;;;;;;;;;10.22;nan;101776.63;5031465;28;20267;-34
2022/12/20 01:42:18;;;;;;;;;;;;;;;10.19;nan;101777.03;5030651;28;20382;-34
2022/12/20 01:44:43;;;;;;;;;;;;;;;10.22;nan;101774.75;5029764;28;19917;-33
2022/12/20 01:47:11;;;;;;;;;;;;;;;10.21;nan;101772.31;5031086;28;19923;-33
2022/12/20 01:49:47;;;;;;;;;;;;;;;10.18;nan;101775.41;5036797;28;19917;-33
2022/12/20 01:52:13;;;;;;;;;;;;;;;10.16;nan;101777.50;5032150;28;19920;-33
2022/12/20 01:54:40;;;;;;;;;;;;;;;10.16;nan;101766.78;5031821;28;19975;-33
2022/12/20 01:57:12;;;;;;;;;;;;;;;10.17;nan;101763.06;5026474;28;19928;-35
2022/12/20 01:59:39;;;;;;;;;;;;;;;10.20;nan;101752.72;5031019;28;20458;-33
2022/12/20 02:02:07;;;;;;;;;;;;;;;10.20;nan;101759.94;5032390;28;19932;-33
2022/12/20 02:04:32;;;;;;;;;;;;;;;10.18;nan;101748.63;5031554;28;19939;-33
2022/12/20 02:06:59;;;;;;;;;;;;;;;10.18;nan;101745.94;5030472;28;20277;-34
2022/12/20 02:09:24;;;;;;;;;;;;;;;10.17;nan;101744.31;5034608;28;20023;-35
2022/12/20 02:11:55;;;;;;;;;;;;;;;10.16;nan;101743.50;5032576;28;20000;-34
2022/12/20 02:14:30;;;;;;;;;;;;;;;10.15;nan;101759.78;5031772;28;20421;-35
2022/12/20 02:16:55;;;;;;;;;;;;;;;10.14;nan;101764.31;5032657;28;19916;-35
2022/12/20 02:19:26;;;;;;;;;;;;;;;10.15;nan;101773.16;5033490;28;19963;-34
2022/12/20 02:21:59;;;;;;;;;;;;;;;10.16;nan;101772.13;5033020;28;19921;-33
2022/12/20 02:24:30;;;;;;;;;;;;;;;10.20;nan;101778.69;5031132;28;20323;-33
2022/12/20 02:26:58;;;;;;;;;;;;;;;10.23;nan;101772.91;5029647;28;19928;-34
2022/12/20 02:29:32;;;;;;;;;;;;;;;10.25;nan;101768.19;5030266;28;19921;-34
2022/12/20 02:32:03;;;;;;;;;;;;;;;10.26;nan;101767.13;5033651;28;19971;-33
2022/12/20 02:34:32;;;;;;;;;;;;;;;10.28;nan;101771.22;5033052;28;19947;-34
2022/12/20 02:36:57;;;;;;;;;;;;;;;10.28;nan;101773.09;5031451;28;19916;-35
2022/12/20 02:39:25;;;;;;;;;;;;;;;10.31;nan;101766.47;5028821;28;20297;-34
2022/12/20 02:41:56;;;;;;;;;;;;;;;10.28;nan;101759.69;5033352;28;19932;-33
2022/12/20 02:47:11;;;;;;;;;;;;;;;10.23;nan;101759.50;5030776;28;19927;-34
2022/12/20 02:49:40;;;;;;;;;;;;;;;10.19;nan;101755.63;5032705;28;20398;-33
2022/12/20 02:52:07;;;;;;;;;;;;;;;10.18;nan;101759.34;5032042;28;19932;-33
2022/12/20 02:54:33;;;;;;;;;;;;;;;10.15;nan;101765.13;5030591;28;20252;-33
2022/12/20 02:57:07;;;;;;;;;;;;;;;10.09;nan;101755.31;5032032;28;19921;-34
2022/12/20 02:59:38;;;;;;;;;;;;;;;10.08;nan;101749.13;5032616;28;19924;-33
2022/12/20 03:02:04;;;;;;;;;;;;;;;10.07;nan;101746.69;5030273;28;19982;-34
2022/12/20 03:04:31;;;;;;;;;;;;;;;10.10;nan;101751.59;5031637;28;20391;-34
2022/12/20 03:06:57;;;;;;;;;;;;;;;10.08;nan;101749.13;5029709;28;19960;-34
2022/12/20 03:09:23;;;;;;;;;;;;;;;10.08;nan;101749.13;5029511;28;20362;-33
2022/12/20 03:11:48;;;;;;;;;;;;;;;10.08;nan;101753.69;5030064;28;20011;-33
2022/12/20 03:14:14;;;;;;;;;;;;;;;10.08;nan;101751.00;5031153;28;19929;-33
2022/12/20 03:16:39;;;;;;;;;;;;;;;10.10;nan;101747.06;5034125;28;19997;-33
2022/12/20 03:19:04;;;;;;;;;;;;;;;10.11;nan;101750.56;5027848;28;19932;-34
2022/12/20 03:21:30;;;;;;;;;;;;;;;10.10;nan;101743.56;5030102;28;20399;-33
2022/12/20 03:23:55;;;;;;;;;;;;;;;10.10;nan;101740.88;5027440;28;20373;-35
2022/12/20 03:26:20;;;;;;;;;;;;;;;10.11;nan;101731.81;5029512;28;20346;-34
2022/12/20 03:28:46;;;;;;;;;;;;;;;10.11;nan;101732.63;5025868;28;19917;-35
2022/12/20 03:31:11;;;;;;;;;;;;;;;10.14;nan;101734.88;5026538;28;20360;-33
2022/12/20 03:33:36;;;;;;;;;;;;;;;10.16;nan;101731.97;5027063;28;20273;-34
2022/12/20 03:36:02;;;;;;;;;;;;;;;10.16;nan;101729.28;5030149;28;19990;-34
2022/12/20 03:38:27;;;;;;;;;;;;;;;10.19;nan;101729.66;5026817;28;19971;-33
2022/12/20 03:40:52;;;;;;;;;;;;;;;10.22;nan;101731.09;5030638;28;19964;-33
2022/12/20 03:43:18;;;;;;;;;;;;;;;10.24;nan;101721.00;5031655;28;19920;-33
2022/12/20 03:45:43;;;;;;;;;;;;;;;10.23;nan;101724.69;5028317;28;19920;-34
2022/12/20 03:48:09;;;;;;;;;;;;;;;10.22;nan;101720.38;5026244;28;19917;-33
2022/12/20 03:50:35;;;;;;;;;;;;;;;10.21;nan;101718.75;5027124;28;20403;-33
2022/12/20 03:53:01;;;;;;;;;;;;;;;10.22;nan;101728.41;5026948;28;19924;-33
2022/12/20 03:55:26;;;;;;;;;;;;;;;10.20;nan;101725.13;5035709;28;19921;-34
2022/12/20 03:57:51;;;;;;;;;;;;;;;10.17;nan;101729.06;5030387;28;20504;-33
2022/12/20 04:00:17;;;;;;;;;;;;;;;10.16;nan;101734.63;5034022;28;19917;-34
2022/12/20 04:02:42;;;;;;;;;;;;;;;10.22;nan;101733.78;5031940;28;20470;-35
2022/12/20 04:05:08;;;;;;;;;;;;;;;10.19;nan;101731.50;5032175;28;20411;-34
2022/12/20 04:07:33;;;;;;;;;;;;;;;10.18;nan;101729.88;5028817;28;19920;-33
2022/12/20 04:09:59;;;;;;;;;;;;;;;10.18;nan;101725.34;5033468;28;19971;-33
2022/12/20 04:12:24;;;;;;;;;;;;;;;10.22;nan;101734.59;5028634;28;19925;-35
2022/12/20 04:14:50;;;;;;;;;;;;;;;10.24;nan;101737.06;5030041;28;20379;-34
2022/12/20 04:17:15;;;;;;;;;;;;;;;10.25;nan;101731.50;5029185;28;19925;-33
2022/12/20 04:19:40;;;;;;;;;;;;;;;10.29;nan;101739.91;5031555;28;19917;-33
2022/12/20 04:22:06;;;;;;;;;;;;;;;10.31;nan;101748.53;5028997;28;19975;-34
2022/12/20 04:24:31;;;;;;;;;;;;;;;10.32;nan;101744.00;5029699;28;19924;-33
2022/12/20 04:26:56;;;;;;;;;;;;;;;10.31;nan;101740.50;5031579;28;19916;-33
2022/12/20 04:29:22;;;;;;;;;;;;;;;10.33;nan;101751.81;5034635;28;20463;-33
2022/12/20 04:31:47;;;;;;;;;;;;;;;10.37;nan;101742.28;5030053;28;20299;-34
2022/12/20 04:34:12;;;;;;;;;;;;;;;10.38;nan;101733.19;5029316;28;20019;-33
2022/12/20 04:36:38;;;;;;;;;;;;;;;10.42;nan;101734.41;5029713;28;20001;-34
2022/12/20 04:39:03;;;;;;;;;;;;;;;10.41;nan;101732.78;5034270;28;20375;-34
2022/12/20 04:41:28;;;;;;;;;;;;;;;10.41;nan;101734.59;5028975;28;19951;-35
2022/12/20 04:43:55;;;;;;;;;;;;;;;10.40;nan;101724.94;5033809;28;19936;-33
2022/12/20 04:46:20;;;;;;;;;;;;;;;10.40;nan;101714.22;5031891;28;19946;-33
2022/12/20 04:48:46;;;;;;;;;;;;;;;10.40;nan;101717.72;5028089;28;20941;-34
2022/12/20 04:51:11;;;;;;;;;;;;;;;10.41;nan;101703.31;5031531;28;20000;-33
2022/12/20 04:53:46;;;;;;;;;;;;;;;10.43;nan;101719.16;5031943;28;20414;-33
2022/12/20 04:56:13;;;;;;;;;;;;;;;10.44;nan;101710.06;5029505;28;19964;-33
2022/12/20 04:58:38;;;;;;;;;;;;;;;10.46;nan;101714.16;5030918;28;19917;-33
2022/12/20 05:01:03;;;;;;;;;;;;;;;10.49;nan;101718.25;5034416;28;19967;-34
2022/12/20 05:03:29;;;;;;;;;;;;;;;10.53;nan;101720.25;5032224;28;19921;-35
2022/12/20 05:05:54;;;;;;;;;;;;;;;10.56;nan;101722.47;5031531;28;19932;-33
2022/12/20 05:08:19;;;;;;;;;;;;;;;10.61;nan;101715.66;5033348;28;20008;-33
2022/12/20 05:10:46;;;;;;;;;;;;;;;10.63;nan;101705.53;5030198;28;20428;-34
2022/12/20 05:13:11;;;;;;;;;;;;;;;10.59;nan;101691.72;5034178;28;19917;-33
2022/12/20 05:15:36;;;;;;;;;;;;;;;10.56;nan;101695.69;5030862;28;19990;-33
2022/12/20 05:18:02;;;;;;;;;;;;;;;10.54;nan;101699.63;5032494;28;20037;-33
2022/12/20 05:20:28;;;;;;;;;;;;;;;10.55;nan;101696.72;5029303;28;19955;-33
2022/12/20 05:28:23;;;;;;;;;;;;;;;10.48;nan;101706.72;5030986;28;19982;-34
2022/12/20 05:30:48;;;;;;;;;;;;;;;10.49;nan;101700.31;5027190;28;19933;-33
2022/12/20 05:33:13;;;;;;;;;;;;;;;10.51;nan;101692.03;5028006;28;20420;-34
2022/12/20 05:35:39;;;;;;;;;;;;;;;10.49;nan;101694.13;5027149;28;19925;-33
2022/12/20 05:38:04;;;;;;;;;;;;;;;10.50;nan;101693.09;5028047;28;19925;-34
2022/12/20 05:40:29;;;;;;;;;;;;;;;10.49;nan;101686.91;5027931;28;19925;-34
2022/12/20 05:42:55;;;;;;;;;;;;;;;10.48;nan;101685.28;5029522;28;20300;-34
2022/12/20 05:45:20;;;;;;;;;;;;;;;10.45;nan;101693.78;5029756;28;20040;-33
2022/12/20 05:47:46;;;;;;;;;;;;;;;10.44;nan;101694.00;5027168;28;20028;-33
2022/12/20 05:50:11;;;;;;;;;;;;;;;10.44;nan;101694.00;5026634;28;19917;-34
2022/12/20 05:52:36;;;;;;;;;;;;;;;10.45;nan;101707.16;5031501;28;19925;-35
2022/12/20 05:55:02;;;;;;;;;;;;;;;10.45;nan;101706.34;5032170;28;19921;-33
2022/12/20 05:57:27;;;;;;;;;;;;;;;10.41;nan;101705.97;5029543;28;19921;-34
2022/12/20 05:59:53;;;;;;;;;;;;;;;10.37;nan;101690.56;5029882;28;19917;-33
2022/12/20 06:02:19;;;;;;;;;;;;;;;10.33;nan;101692.88;5028789;28;20365;-33
2022/12/20 06:04:44;;;;;;;;;;;;;;;10.28;nan;101700.75;5026282;28;20302;-34
2022/12/20 06:07:10;;;;;;;;;;;;;;;10.25;nan;101709.25;5028457;28;20487;-33
2022/12/20 06:09:35;;;;;;;;;;;;;;;10.23;nan;101711.31;5027808;28;19968;-35
2022/12/20 06:12:00;;;;;;;;;;;;;;;10.24;nan;101715.66;5029140;28;19917;-33
2022/12/20 06:14:26;;;;;;;;;;;;;;;10.24;nan;101718.31;5029892;28;19978;-33
2022/12/20 06:16:52;;;;;;;;;;;;;;;10.24;nan;101716.47;5025838;28;20056;-34
2022/12/20 06:19:17;;;;;;;;;;;;;;;10.24;nan;101712.97;5026792;28;19917;-33
2022/12/20 06:21:42;;;;;;;;;;;;;;;10.22;nan;101717.69;5028510;28;19921;-34
2022/12/20 06:24:08;;;;;;;;;;;;;;;10.18;nan;101716.47;5028111;28;19921;-33
2022/12/20 06:26:36;;;;;;;;;;;;;;;10.15;nan;101712.41;5026132;28;20400;-34
2022/12/20 06:29:03;;;;;;;;;;;;;;;10.11;nan;101705.84;5028076;28;19917;-33
2022/12/20 06:31:29;;;;;;;;;;;;;;;10.06;nan;101711.06;5029424;28;20088;-34
2022/12/20 06:33:54;;;;;;;;;;;;;;;10.05;nan;101705.91;5029703;28;19917;-33
2022/12/20 06:36:19;;;;;;;;;;;;;;;10.06;nan;101702.22;5028966;28;19917;-33
2022/12/20 06:38:45;;;;;;;;;;;;;;;10.06;nan;101702.22;5034434;28;20012;-35
2022/12/20 06:41:10;;;;;;;;;;;;;;;9.94;nan;101708.28;5033446;28;19921;-33
2022/12/20 06:43:35;;;;;;;;;;;;;;;9.92;nan;101720.25;5031147;28;20164;-33
2022/12/20 06:46:00;;;;;;;;;;;;;;;9.92;nan;101707.69;5030846;28;20383;-33
2022/12/20 06:48:26;;;;;;;;;;;;;;;9.91;nan;101705.22;5031379;28;20364;-33
2022/12/20 06:50:51;;;;;;;;;;;;;;;9.92;nan;101702.31;5028975;28;20016;-33
2022/12/20 06:53:16;;;;;;;;;;;;;;;9.90;nan;101703.59;5028761;28;19917;-34
2022/12/20 06:55:42;;;;;;;;;;;;;;;9.89;nan;101697.41;5059736;23;19936;-32
2022/12/20 06:58:07;;;;;;;;;;;;;;;9.88;nan;101703.00;5034883;28;19992;-32
2022/12/20 07:00:33;;;;;;;;;;;;;;;9.86;nan;101713.91;5040956;28;20403;-32
2022/12/20 07:02:58;;;;;;;;;;;;;;;9.85;nan;101725.63;5034549;28;20394;-32
2022/12/20 07:05:24;;;;;;;;;;;;;;;9.89;nan;101726.88;5035571;28;19917;-32
2022/12/20 07:07:49;;;;;;;;;;;;;;;9.89;nan;101726.03;5032758;28;20272;-32
2022/12/20 07:10:15;;;;;;;;;;;;;;;9.90;nan;101735.72;5033031;28;19917;-32
2022/12/20 07:12:40;;;;;;;;;;;;;;;9.90;nan;101741.88;5036784;28;19925;-32
2022/12/20 07:15:06;;;;;;;;;;;;;;;9.94;nan;101743.06;5034554;28;21137;-32
2022/12/20 07:17:32;;;;;;;;;;;;;;;9.97;nan;101750.66;5036091;28;19913;-32
2022/12/20 07:19:57;;;;;;;;;;;;;;;9.99;nan;101743.22;5031878;28;19921;-32
2022/12/20 07:22:22;;;;;;;;;;;;;;;10.02;nan;101736.63;5037385;28;19956;-32
2022/12/20 07:24:49;;;;;;;;;;;;;;;10.06;nan;101737.03;5033065;28;19958;-32
2022/12/20 07:27:14;;;;;;;;;;;;;;;10.09;nan;101740.06;5033028;28;19917;-32
2022/12/20 07:29:40;;;;;;;;;;;;;;;10.14;nan;101726.00;5032423;28;20096;-32
2022/12/20 07:32:06;;;;;;;;;;;;;;;10.15;nan;101711.56;5035032;28;19921;-32
2022/12/20 07:34:32;;;;;;;;;;;;;;;10.13;nan;101701.09;5035296;28;19927;-32
2022/12/20 07:36:57;;;;;;;;;;;;;;;10.14;nan;101689.34;5039286;28;19917;-32
2022/12/20 07:39:23;;;;;;;;;;;;;;;10.14;nan;101697.38;5035283;28;19917;-32
2022/12/20 07:41:48;;;;;;;;;;;;;;;10.16;nan;101703.31;5039769;28;20062;-32
2022/12/20 07:44:13;;;;;;;;;;;;;;;10.22;nan;101707.00;5034101;28;20273;-32
2022/12/20 07:46:39;;;;;;;;;;;;;;;10.24;nan;101716.47;5036094;28;20295;-32
2022/12/20 07:49:04;;;;;;;;;;;;;;;10.24;nan;101721.00;5034474;28;20545;-33
2022/12/20 07:51:32;;;;;;;;;;;;;;;10.25;nan;101715.44;5019098;28;20384;-32
2022/12/20 07:54:05;;;;;;;;;;;;;;;10.32;nan;101717.19;5035545;28;19925;-32
2022/12/20 07:56:32;;;;;;;;;;;;;;;10.36;nan;101719.22;5036906;28;19970;-32
2022/12/20 07:58:59;;;;;;;;;;;;;;;10.34;nan;101726.66;5034993;28;20383;-32
2022/12/20 08:01:26;;;;;;;;;;;;;;;10.37;nan;101723.53;5035578;28;19997;-32
2022/12/20 08:03:55;;;;;;;;;;;;;;;10.40;nan;101731.09;5035572;28;20390;-32
2022/12/20 08:06:20;;;;;;;;;;;;;;;10.41;nan;101738.13;5041327;28;19924;-32
2022/12/20 08:08:48;;;;;;;;;;;;;;;10.43;nan;101736.03;5039156;28;19925;-32
2022/12/20 08:11:14;;;;;;;;;;;;;;;10.47;nan;101745.28;5042154;28;19916;-33
2022/12/20 08:13:39;;;;;;;;;;;;;;;10.54;nan;101742.50;5036825;28;20023;-32
2022/12/20 08:16:05;;;;;;;;;;;;;;;10.58;nan;101744.50;5038744;28;20030;-32
2022/12/20 08:18:30;;;;;;;;;;;;;;;10.62;nan;101741.41;5039592;28;20394;-32
2022/12/20 08:20:56;;;;;;;;;;;;;;;10.65;nan;101743.63;5037806;28;19917;-32
2022/12/20 08:23:21;;;;;;;;;;;;;;;10.65;nan;101736.41;5035548;28;20350;-32
2022/12/20 08:25:47;;;;;;;;;;;;;;;10.69;nan;101728.72;5040797;28;20165;-32
2022/12/20 08:28:12;;;;;;;;;;;;;;;10.74;nan;101726.19;5038186;28;19980;-32
2022/12/20 08:30:37;;;;;;;;;;;;;;;10.78;nan;101738.13;5038642;28;20373;-33
2022/12/20 08:33:04;;;;;;;;;;;;;;;10.83;nan;101741.75;5038868;28;19924;-32
2022/12/20 08:35:30;;;;;;;;;;;;;;;10.86;nan;101743.16;5037476;28;19928;-32
2022/12/20 08:37:55;;;;;;;;;;;;;;;10.91;nan;101740.63;5037281;28;19921;-32
2022/12/20 08:40:21;;;;;;;;;;;;;;;10.94;nan;101734.78;5042161;28;20004;-33
2022/12/20 08:42:46;;;;;;;;;;;;;;;10.96;nan;101735.41;5038132;28;19952;-32
2022/12/20 08:45:12;;;;;;;;;;;;;;;11.00;nan;101736.59;5034648;28;19917;-32
2022/12/20 08:47:37;;;;;;;;;;;;;;;11.03;nan;101738.81;5037938;28;20074;-32
2022/12/20 08:50:03;;;;;;;;;;;;;;;11.04;nan;101737.78;5041940;28;19928;-32
2022/12/20 08:52:28;;;;;;;;;;;;;;;11.05;nan;101739.41;5043023;28;19920;-32
2022/12/20 08:54:54;;;;;;;;;;;;;;;11.07;nan;101720.41;5039512;28;19921;-32
2022/12/20 08:57:19;;;;;;;;;;;;;;;11.11;nan;101726.94;5041828;28;19924;-32
2022/12/20 08:59:44;;;;;;;;;;;;;;;11.11;nan;101725.06;5037295;28;20530;-32
2022/12/20 09:02:10;;;;;;;;;;;;;;;11.14;nan;101724.66;5030483;28;19916;-32
2022/12/20 09:04:35;;;;;;;;;;;;;;;11.16;nan;101732.47;5035514;28;19917;-32
2022/12/20 09:07:01;;;;;;;;;;;;;;;11.15;nan;101728.97;5037073;28;19952;-32
2022/12/20 09:09:27;;;;;;;;;;;;;;;11.17;nan;101721.50;5033668;28;19962;-32
2022/12/20 09:11:52;;;;;;;;;;;;;;;11.16;nan;101724.41;5036610;28;19927;-32
2022/12/20 09:14:17;;;;;;;;;;;;;;;11.18;nan;101719.63;5037278;28;20013;-32
2022/12/20 09:16:43;;;;;;;;;;;;;;;11.22;nan;101722.69;5036555;28;19945;-32
2022/12/20 09:19:10;;;;;;;;;;;;;;;11.25;nan;101722.22;5033827;28;19931;-32
2022/12/20 09:21:36;;;;;;;;;;;;;;;11.26;nan;101721.97;5040515;28;19962;-32
2022/12/20 09:24:01;;;;;;;;;;;;;;;11.27;nan;101722.81;5039021;28;19917;-32
2022/12/20 09:26:27;;;;;;;;;;;;;;;11.32;nan;101723.78;5037106;28;19964;-32
2022/12/20 09:28:52;;;;;;;;;;;;;;;11.40;nan;101720.75;5036318;28;19924;-32
2022/12/20 09:31:22;;;;;;;;;;;;;;;11.40;nan;101717.25;5039426;28;20343;-32
2022/12/20 09:33:48;;;;;;;;;;;;;;;11.44;nan;101713.03;5036563;28;19920;-32
2022/12/20 09:36:17;;;;;;;;;;;;;;;11.48;nan;101711.53;5033627;28;19928;-32
2022/12/20 09:38:43;;;;;;;;;;;;;;;11.54;nan;101705.25;5036389;28;20383;-32
2022/12/20 09:41:18;;;;;;;;;;;;;;;11.59;nan;101697.31;5034311;28;19931;-32
2022/12/20 09:43:44;;;;;;;;;;;;;;;11.65;nan;101695.56;5034017;28;19921;-32
2022/12/20 09:46:13;;;;;;;;;;;;;;;11.68;nan;101690.59;5039099;28;19923;-33
2022/12/20 09:48:39;;;;;;;;;;;;;;;11.72;nan;101689.06;5038076;28;20016;-32
2022/12/20 09:51:05;;;;;;;;;;;;;;;11.73;nan;101698.75;5037456;28;21394;-33
2022/12/20 09:53:49;;;;;;;;;;;;;;;11.77;nan;101699.91;5033478;28;19921;-32
2022/12/20 09:56:17;;;;;;;;;;;;;;;11.80;nan;101693.28;5039209;28;19921;-32
2022/12/20 09:59:01;;;;;;;;;;;;;;;11.80;nan;101688.72;5035194;28;19925;-33
2022/12/20 10:01:28;;;;;;;;;;;;;;;11.82;nan;101688.50;5034049;28;19967;-32
2022/12/20 10:03:55;;;;;;;;;;;;;;;11.83;nan;101692.00;5040103;28;19956;-32
2022/12/20 10:06:35;;;;;;;;;;;;;;;11.85;nan;101687.22;5038092;28;19932;-32
2022/12/20 10:09:23;;;;;;;;;;;;;;;11.87;nan;101687.81;5035143;28;19994;-33
2022/12/20 10:11:50;;;;;;;;;;;;;;;11.93;nan;101689.56;5036702;28;20407;-32
2022/12/20 10:14:15;;;;;;;;;;;;;;;11.94;nan;101667.84;5037981;28;20459;-32
2022/12/20 10:16:49;;;;;;;;;;;;;;;11.96;nan;101673.78;5037946;28;20148;-32
2022/12/20 10:19:27;;;;;;;;;;;;;;;12.01;nan;101673.06;5034584;28;19917;-32
2022/12/20 10:21:57;;;;;;;;;;;;;;;12.07;nan;101672.16;5036851;28;20035;-32
2022/12/20 10:24:32;;;;;;;;;;;;;;;12.09;nan;101672.72;5037345;28;20418;-32
2022/12/20 10:27:10;;;;;;;;;;;;;;;12.12;nan;101674.13;5041347;28;19984;-32
2022/12/20 10:29:35;;;;;;;;;;;;;;;12.13;nan;101665.84;5036767;28;19921;-32
2022/12/20 10:32:01;;;;;;;;;;;;;;;12.17;nan;101661.63;5032746;28;19940;-33
2022/12/20 10:34:26;;;;;;;;;;;;;;;12.17;nan;101661.63;5036911;28;19929;-32
2022/12/20 10:37:18;;;;;;;;;;;;;;;12.21;nan;101662.81;5036416;28;19917;-32
2022/12/20 10:39:46;;;;;;;;;;;;;;;12.23;nan;101660.69;5026860;28;19956;-33
2022/12/20 10:42:30;;;;;;;;;;;;;;;12.27;nan;101648.41;5039733;28;19920;-32
2022/12/20 10:44:56;;;;;;;;;;;;;;;12.30;nan;101642.56;5034680;28;19971;-33
2022/12/20 10:47:35;;;;;;;;;;;;;;;12.32;nan;101640.44;5034227;28;19972;-33
2022/12/20 10:50:13;;;;;;;;;;;;;;;12.34;nan;101646.41;5039424;28;19917;-33
2022/12/20 10:52:39;;;;;;;;;;;;;;;12.33;nan;101644.75;5036945;28;19928;-33
2022/12/20 10:55:24;;;;;;;;;;;;;;;12.31;nan;101624.56;5031803;28;20304;-32
2022/12/20 10:57:49;;;;;;;;;;;;;;;12.28;nan;101625.84;5032424;28;19947;-33
2022/12/20 11:00:27;;;;;;;;;;;;;;;12.29;nan;101624.81;5032338;28;19917;-33
2022/12/20 11:03:04;;;;;;;;;;;;;;;12.36;nan;101619.28;5039482;28;19924;-33
2022/12/20 11:05:29;;;;;;;;;;;;;;;12.36;nan;101609.34;5042307;28;19952;-33
2022/12/20 11:08:05;;;;;;;;;;;;;;;12.43;nan;101617.28;5037681;28;19960;-32
2022/12/20 11:10:31;;;;;;;;;;;;;;;12.44;nan;101618.09;5034089;28;20455;-33
2022/12/20 11:12:57;;;;;;;;;;;;;;;12.52;nan;101609.66;5041378;28;20011;-33
2022/12/20 11:15:24;;;;;;;;;;;;;;;12.55;nan;101607.28;5044753;28;19963;-33
2022/12/20 11:17:52;;;;;;;;;;;;;;;12.60;nan;101598.53;5038933;28;19920;-33
2022/12/20 11:20:36;;;;;;;;;;;;;;;12.61;nan;101589.41;5037816;28;19952;-33
2022/12/20 11:23:01;;;;;;;;;;;;;;;12.64;nan;101581.66;5038162;28;19971;-33
2022/12/20 11:25:42;;;;;;;;;;;;;;;12.67;nan;101580.38;5039104;28;19929;-32
2022/12/20 11:28:11;;;;;;;;;;;;;;;12.68;nan;101577.44;5036125;28;20478;-33
2022/12/20 11:30:47;;;;;;;;;;;;;;;12.69;nan;101568.31;5037848;28;19920;-33
2022/12/20 11:33:31;;;;;;;;;;;;;;;12.73;nan;101568.63;5040091;28;19916;-32
2022/12/20 11:36:01;;;;;;;;;;;;;;;12.78;nan;101566.06;5038993;28;20349;-33
2022/12/20 11:38:33;;;;;;;;;;;;;;;12.83;nan;101565.31;5035867;28;20051;-33
2022/12/20 11:41:01;;;;;;;;;;;;;;;12.84;nan;101565.06;5036058;28;19936;-33
2022/12/20 11:43:29;;;;;;;;;;;;;;;12.90;nan;101568.66;5041305;28;20118;-33
2022/12/20 11:46:07;;;;;;;;;;;;;;;12.97;nan;101567.44;5040991;28;19925;-33
2022/12/20 11:48:42;;;;;;;;;;;;;;;13.03;nan;101560.28;5036427;28;19921;-33
2022/12/20 11:51:27;;;;;;;;;;;;;;;13.07;nan;101544.44;5037057;28;19987;-33
2022/12/20 11:54:02;;;;;;;;;;;;;;;13.12;nan;101540.00;5038409;28;19974;-32
2022/12/20 11:56:27;;;;;;;;;;;;;;;13.12;nan;101526.53;5034758;28;20019;-33
2022/12/20 11:58:55;;;;;;;;;;;;;;;13.15;nan;101534.09;5029155;28;19931;-33
2022/12/20 12:01:25;;;;;;;;;;;;;;;13.18;nan;101525.56;5034830;28;19924;-32
2022/12/20 12:03:59;;;;;;;;;;;;;;;13.26;nan;101524.31;5035563;28;20295;-32
2022/12/20 12:06:27;;;;;;;;;;;;;;;13.33;nan;101524.97;5036984;28;19932;-32
2022/12/20 12:09:15;;;;;;;;;;;;;;;13.30;nan;101512.03;5036892;28;20412;-33
2022/12/20 12:11:45;;;;;;;;;;;;;;;13.31;nan;101510.97;5039520;28;19931;-33
2022/12/20 12:14:16;;;;;;;;;;;;;;;13.33;nan;101510.72;5032564;28;19932;-34
2022/12/20 12:16:45;;;;;;;;;;;;;;;13.34;nan;101509.66;5018650;28;19921;-33
2022/12/20 12:19:12;;;;;;;;;;;;;;;13.39;nan;101512.41;5039695;28;20658;-33
2022/12/20 12:21:39;;;;;;;;;;;;;;;13.43;nan;101505.47;5036639;28;19925;-33
2022/12/20 12:24:13;;;;;;;;;;;;;;;13.45;nan;101506.84;5035013;28;19928;-33
2022/12/20 12:26:41;;;;;;;;;;;;;;;13.46;nan;101508.47;5035889;28;19921;-33
2022/12/20 12:29:14;;;;;;;;;;;;;;;13.47;nan;101512.81;5034871;28;19936;-33
2022/12/20 12:31:43;;;;;;;;;;;;;;;13.47;nan;101510.13;5035428;28;19928;-33
2022/12/20 12:34:09;;;;;;;;;;;;;;;13.49;nan;101512.56;5035989;28;19967;-33
2022/12/20 12:36:34;;;;;;;;;;;;;;;13.48;nan;101511.75;5037415;28;20008;-33
2022/12/20 12:39:18;;;;;;;;;;;;;;;13.50;nan;101509.63;5036837;28;19924;-33
2022/12/20 12:42:06;;;;;;;;;;;;;;;13.52;nan;101507.50;5032200;28;21283;-33
2022/12/20 12:44:41;;;;;;;;;;;;;;;13.54;nan;101523.38;5037515;28;20104;-33
2022/12/20 12:47:14;;;;;;;;;;;;;;;13.48;nan;101516.31;5035024;28;20422;-33
2022/12/20 12:49:40;;;;;;;;;;;;;;;13.53;nan;101519.88;5035379;28;20167;-33
2022/12/20 12:52:06;;;;;;;;;;;;;;;13.51;nan;101513.94;5038450;28;19921;-33
2022/12/20 12:54:38;;;;;;;;;;;;;;;13.47;nan;101499.34;5037311;28;20406;-33
2022/12/20 12:57:15;;;;;;;;;;;;;;;13.38;nan;101492.75;5036142;28;19921;-33
2022/12/20 12:59:47;;;;;;;;;;;;;;;13.40;nan;101493.31;5030379;28;19924;-33
2022/12/20 13:02:12;;;;;;;;;;;;;;;13.35;nan;101495.94;5038638;28;19921;-33
2022/12/20 13:04:56;;;;;;;;;;;;;;;13.37;nan;101493.81;5037295;28;19939;-33
2022/12/20 13:07:25;;;;;;;;;;;;;;;13.32;nan;101484.88;5036033;28;19944;-34